sensor_id;sensor_type;location;lat;lon;timestamp;pressure;altitude;pressure_sealevel;temperature;humidity
17855;BME280;9053;53.358;6.382;2023-04-19T00:00:52;103072.84;;;8.91;94.97
17855;BME280;9053;53.358;6.382;2023-04-19T00:03:29;103075.47;;;8.91;95.17
17855;BME280;9053;53.358;6.382;2023-04-19T00:06:02;103069.31;;;8.91;95.21
17855;BME280;9053;53.358;6.382;2023-04-19T00:38:10;103073.59;;;8.78;95.64
17855;BME280;9053;53.358;6.382;2023-04-19T00:40:40;103074.28;;;8.76;95.55
17855;BME280;9053;53.358;6.382;2023-04-19T01:12:34;103078.31;;;8.27;96.96
17855;BME280;9053;53.358;6.382;2023-04-19T01:15:05;103074.66;;;8.24;97.04
17855;BME280;9053;53.358;6.382;2023-04-19T01:17:36;103074.53;;;8.23;97.14
17855;BME280;9053;53.358;6.382;2023-04-19T01:20:11;103068.38;;;8.22;97.37
17855;BME280;9053;53.358;6.382;2023-04-19T01:22:46;103071.00;;;8.22;97.56
17855;BME280;9053;53.358;6.382;2023-04-19T01:25:17;103079.66;;;8.21;97.73
17855;BME280;9053;53.358;6.382;2023-04-19T01:41:38;103085.25;;;8.26;98.29
17855;BME280;9053;53.358;6.382;2023-04-19T02:05:28;103086.59;;;8.21;97.45
17855;BME280;9053;53.358;6.382;2023-04-19T02:08:00;103083.88;;;8.19;97.24
17855;BME280;9053;53.358;6.382;2023-04-19T02:10:33;103084.63;;;8.18;97.00
17855;BME280;9053;53.358;6.382;2023-04-19T02:13:07;103079.97;;;8.14;96.78
17855;BME280;9053;53.358;6.382;2023-04-19T02:15:39;103084.03;;;8.11;96.49
17855;BME280;9053;53.358;6.382;2023-04-19T02:18:12;103089.94;;;8.08;96.31
17855;BME280;9053;53.358;6.382;2023-04-19T02:20:53;103078.41;;;8.06;95.99
17855;BME280;9053;53.358;6.382;2023-04-19T02:23:23;103081.72;;;8.03;95.69
17855;BME280;9053;53.358;6.382;2023-04-19T02:25:59;103079.00;;;8.02;95.45
17855;BME280;9053;53.358;6.382;2023-04-19T02:28:44;103080.34;;;7.97;95.23
17855;BME280;9053;53.358;6.382;2023-04-19T02:31:20;103087.94;;;7.94;94.82
17855;BME280;9053;53.358;6.382;2023-04-19T02:33:52;103090.31;;;7.91;94.52
17855;BME280;9053;53.358;6.382;2023-04-19T06:49:28;103142.47;;;10.15;76.50
17855;BME280;9053;53.358;6.382;2023-04-19T09:56:05;103040.44;;;12.94;71.14
17855;BME280;9053;53.358;6.382;2023-04-19T10:33:30;102982.91;;;18.77;75.01
17855;BME280;9053;53.358;6.382;2023-04-19T10:38:18;102983.66;;;18.75;74.58
17855;BME280;9053;53.358;6.382;2023-04-19T10:43:24;102990.34;;;18.88;72.08
17855;BME280;9053;53.358;6.382;2023-04-19T10:50:17;102970.59;;;19.94;73.85
17855;BME280;9053;53.358;6.382;2023-04-19T10:52:54;102973.13;;;19.61;73.06
17855;BME280;9053;53.358;6.382;2023-04-19T10:55:27;102972.09;;;19.56;72.81
17855;BME280;9053;53.358;6.382;2023-04-19T11:16:21;102964.78;;;14.06;64.93
17855;BME280;9053;53.358;6.382;2023-04-19T11:24:48;102956.59;;;13.21;66.41
17855;BME280;9053;53.358;6.382;2023-04-19T11:27:45;102972.94;;;12.99;67.73
17855;BME280;9053;53.358;6.382;2023-04-19T11:30:28;102965.31;;;12.74;68.35
17855;BME280;9053;53.358;6.382;2023-04-19T11:32:59;102973.50;;;12.64;69.30
17855;BME280;9053;53.358;6.382;2023-04-19T11:35:29;102966.31;;;12.46;69.67
17855;BME280;9053;53.358;6.382;2023-04-19T11:38:02;102966.69;;;12.38;69.92
17855;BME280;9053;53.358;6.382;2023-04-19T11:40:38;102956.66;;;12.32;70.59
17855;BME280;9053;53.358;6.382;2023-04-19T11:43:08;102958.31;;;12.30;71.12
17855;BME280;9053;53.358;6.382;2023-04-19T11:45:41;102963.47;;;12.28;71.37
17855;BME280;9053;53.358;6.382;2023-04-19T11:48:15;102952.09;;;12.15;71.37
17855;BME280;9053;53.358;6.382;2023-04-19T11:50:45;102952.97;;;12.00;71.79
17855;BME280;9053;53.358;6.382;2023-04-19T11:53:20;102945.69;;;11.96;72.01
17855;BME280;9053;53.358;6.382;2023-04-19T11:56:07;102936.56;;;11.91;72.24
17855;BME280;9053;53.358;6.382;2023-04-19T11:58:39;102938.78;;;11.98;72.74
17855;BME280;9053;53.358;6.382;2023-04-19T12:01:15;102930.97;;;12.00;72.45
17855;BME280;9053;53.358;6.382;2023-04-19T12:03:48;102924.03;;;12.02;72.82
17855;BME280;9053;53.358;6.382;2023-04-19T12:06:23;102924.13;;;11.88;72.91
17855;BME280;9053;53.358;6.382;2023-04-19T12:08:58;102911.75;;;11.87;72.99
17855;BME280;9053;53.358;6.382;2023-04-19T12:11:47;102916.97;;;12.01;73.65
17855;BME280;9053;53.358;6.382;2023-04-19T12:14:20;102905.06;;;12.07;74.02
17855;BME280;9053;53.358;6.382;2023-04-19T12:17:05;102911.31;;;12.09;74.19
17855;BME280;9053;53.358;6.382;2023-04-19T12:19:42;102921.88;;;12.09;74.42
17855;BME280;9053;53.358;6.382;2023-04-19T12:22:14;102930.16;;;12.01;73.62
17855;BME280;9053;53.358;6.382;2023-04-19T12:24:46;102927.22;;;11.96;73.47
17855;BME280;9053;53.358;6.382;2023-04-19T12:27:23;102912.56;;;11.86;73.10
17855;BME280;9053;53.358;6.382;2023-04-19T12:29:59;102908.41;;;11.90;73.66
17855;BME280;9053;53.358;6.382;2023-04-19T12:32:29;102921.16;;;11.97;74.10
17855;BME280;9053;53.358;6.382;2023-04-19T12:34:59;102903.78;;;12.01;73.90
17855;BME280;9053;53.358;6.382;2023-04-19T12:37:28;102907.31;;;12.01;73.38
17855;BME280;9053;53.358;6.382;2023-04-19T12:40:02;102932.41;;;11.95;73.00
17855;BME280;9053;53.358;6.382;2023-04-19T12:42:37;102897.66;;;11.87;72.92
17855;BME280;9053;53.358;6.382;2023-04-19T12:45:11;102886.22;;;12.01;73.62
17855;BME280;9053;53.358;6.382;2023-04-19T12:47:45;102887.22;;;12.03;73.15
17855;BME280;9053;53.358;6.382;2023-04-19T12:50:17;102884.59;;;12.03;73.32
17855;BME280;9053;53.358;6.382;2023-04-19T12:52:47;102881.84;;;12.17;73.53
17855;BME280;9053;53.358;6.382;2023-04-19T12:55:23;102883.59;;;12.16;72.79
17855;BME280;9053;53.358;6.382;2023-04-19T12:57:56;102869.66;;;12.04;72.51
17855;BME280;9053;53.358;6.382;2023-04-19T13:00:29;102886.03;;;11.98;72.58
17855;BME280;9053;53.358;6.382;2023-04-19T13:03:05;102870.38;;;12.01;72.70
17855;BME280;9053;53.358;6.382;2023-04-19T13:05:40;102886.94;;;12.13;73.50
17855;BME280;9053;53.358;6.382;2023-04-19T13:08:15;102860.84;;;12.18;73.55
17855;BME280;9053;53.358;6.382;2023-04-19T13:13:56;102876.50;;;12.15;72.91
17855;BME280;9053;53.358;6.382;2023-04-19T13:16:26;102860.56;;;12.13;72.26
17855;BME280;9053;53.358;6.382;2023-04-19T13:18:56;102855.84;;;12.23;72.58
17855;BME280;9053;53.358;6.382;2023-04-19T13:21:26;102843.56;;;12.23;72.26
17855;BME280;9053;53.358;6.382;2023-04-19T13:23:58;102844.56;;;12.25;72.20
17855;BME280;9053;53.358;6.382;2023-04-19T13:29:15;102830.66;;;12.28;71.49
17855;BME280;9053;53.358;6.382;2023-04-19T13:31:45;102822.19;;;12.33;72.44
17855;BME280;9053;53.358;6.382;2023-04-19T13:34:15;102816.44;;;12.41;74.10
17855;BME280;9053;53.358;6.382;2023-04-19T13:36:52;102815.16;;;12.34;74.61
17855;BME280;9053;53.358;6.382;2023-04-19T13:39:29;102814.16;;;12.32;75.77
17855;BME280;9053;53.358;6.382;2023-04-19T13:41:59;102816.16;;;12.36;76.63
17855;BME280;9053;53.358;6.382;2023-04-19T13:44:35;102818.34;;;12.43;77.07
17855;BME280;9053;53.358;6.382;2023-04-19T13:47:05;102829.38;;;12.36;76.34
17855;BME280;9053;53.358;6.382;2023-04-19T13:49:35;102806.53;;;12.22;75.59
17855;BME280;9053;53.358;6.382;2023-04-19T13:52:09;102806.91;;;12.28;76.79
17855;BME280;9053;53.358;6.382;2023-04-19T13:54:40;102811.53;;;12.32;76.88
17855;BME280;9053;53.358;6.382;2023-04-19T13:57:10;102808.66;;;12.27;76.55
17855;BME280;9053;53.358;6.382;2023-04-19T13:59:45;102804.72;;;12.21;76.51
17855;BME280;9053;53.358;6.382;2023-04-19T14:02:20;102798.53;;;12.20;76.52
17855;BME280;9053;53.358;6.382;2023-04-19T14:04:54;102801.19;;;12.20;76.88
17855;BME280;9053;53.358;6.382;2023-04-19T14:07:25;102800.34;;;12.21;77.31
17855;BME280;9053;53.358;6.382;2023-04-19T14:09:58;102786.81;;;12.30;77.66
17855;BME280;9053;53.358;6.382;2023-04-19T14:12:28;102800.00;;;12.30;77.27
17855;BME280;9053;53.358;6.382;2023-04-19T14:15:03;102784.34;;;12.18;76.50
17855;BME280;9053;53.358;6.382;2023-04-19T14:17:33;102789.19;;;12.10;76.41
17855;BME280;9053;53.358;6.382;2023-04-19T14:20:06;102777.63;;;12.08;76.38
17855;BME280;9053;53.358;6.382;2023-04-19T14:22:42;102779.09;;;12.03;76.53
17855;BME280;9053;53.358;6.382;2023-04-19T14:25:14;102772.53;;;12.11;76.71
17855;BME280;9053;53.358;6.382;2023-04-19T14:27:44;102767.44;;;12.15;76.65
17855;BME280;9053;53.358;6.382;2023-04-19T14:30:20;102751.25;;;12.08;76.01
17855;BME280;9053;53.358;6.382;2023-04-19T14:32:51;102759.78;;;12.04;75.86
17855;BME280;9053;53.358;6.382;2023-04-19T14:35:27;102763.09;;;12.00;75.17
17855;BME280;9053;53.358;6.382;2023-04-19T14:38:00;102769.91;;;11.82;74.30
17855;BME280;9053;53.358;6.382;2023-04-19T14:40:36;102751.06;;;11.76;73.59
17855;BME280;9053;53.358;6.382;2023-04-19T14:43:05;102744.94;;;11.77;73.32
17855;BME280;9053;53.358;6.382;2023-04-19T14:45:46;102745.16;;;11.80;73.20
17855;BME280;9053;53.358;6.382;2023-04-19T14:48:17;102747.97;;;11.83;72.21
17855;BME280;9053;53.358;6.382;2023-04-19T14:50:48;102748.88;;;11.83;70.91
17855;BME280;9053;53.358;6.382;2023-04-19T14:53:21;102747.78;;;11.80;70.46
17855;BME280;9053;53.358;6.382;2023-04-19T14:55:53;102746.69;;;11.76;70.37
17855;BME280;9053;53.358;6.382;2023-04-19T14:58:23;102746.41;;;11.72;70.05
17855;BME280;9053;53.358;6.382;2023-04-19T15:00:57;102754.06;;;11.82;70.33
17855;BME280;9053;53.358;6.382;2023-04-19T15:03:30;102739.59;;;11.75;69.95
17855;BME280;9053;53.358;6.382;2023-04-19T15:06:06;102721.72;;;11.69;70.21
17855;BME280;9053;53.358;6.382;2023-04-19T15:08:36;102726.88;;;11.68;69.78
17855;BME280;9053;53.358;6.382;2023-04-19T15:11:07;102740.06;;;11.68;69.99
17855;BME280;9053;53.358;6.382;2023-04-19T15:13:42;102725.16;;;11.68;70.47
17855;BME280;9053;53.358;6.382;2023-04-19T15:16:17;102712.78;;;11.82;70.59
17855;BME280;9053;53.358;6.382;2023-04-19T15:19:03;102732.78;;;11.79;70.32
17855;BME280;9053;53.358;6.382;2023-04-19T15:21:37;102717.25;;;11.68;70.16
17855;BME280;9053;53.358;6.382;2023-04-19T15:24:09;102713.16;;;11.59;70.45
17855;BME280;9053;53.358;6.382;2023-04-19T15:26:44;102711.50;;;11.61;70.90
17855;BME280;9053;53.358;6.382;2023-04-19T15:29:14;102725.81;;;11.64;71.43
17855;BME280;9053;53.358;6.382;2023-04-19T15:32:07;102713.25;;;11.60;71.97
17855;BME280;9053;53.358;6.382;2023-04-19T15:34:44;102711.63;;;11.47;72.71
17855;BME280;9053;53.358;6.382;2023-04-19T15:37:26;102714.34;;;11.49;73.29
17855;BME280;9053;53.358;6.382;2023-04-19T15:40:00;102716.97;;;11.49;74.13
17855;BME280;9053;53.358;6.382;2023-04-19T15:42:36;102700.16;;;11.47;75.28
17855;BME280;9053;53.358;6.382;2023-04-19T15:45:12;102698.72;;;11.52;76.14
17855;BME280;9053;53.358;6.382;2023-04-19T15:47:44;102703.16;;;11.53;76.71
17855;BME280;9053;53.358;6.382;2023-04-19T15:50:17;102704.78;;;11.51;77.86
17855;BME280;9053;53.358;6.382;2023-04-19T15:52:59;102699.25;;;11.46;78.79
17855;BME280;9053;53.358;6.382;2023-04-19T15:55:41;102701.97;;;11.48;79.56
17855;BME280;9053;53.358;6.382;2023-04-19T15:58:28;102706.44;;;11.49;79.38
17855;BME280;9053;53.358;6.382;2023-04-19T16:00:59;102701.97;;;11.48;79.49
17855;BME280;9053;53.358;6.382;2023-04-19T16:03:32;102699.72;;;11.39;79.27
17855;BME280;9053;53.358;6.382;2023-04-19T16:06:02;102704.88;;;11.38;79.76
17855;BME280;9053;53.358;6.382;2023-04-19T16:08:32;102712.31;;;11.30;80.13
17855;BME280;9053;53.358;6.382;2023-04-19T16:11:03;102705.13;;;11.27;80.33
17855;BME280;9053;53.358;6.382;2023-04-19T16:13:37;102693.97;;;11.32;80.14
17855;BME280;9053;53.358;6.382;2023-04-19T16:16:10;102697.34;;;11.29;79.69
17855;BME280;9053;53.358;6.382;2023-04-19T16:18:47;102695.97;;;11.36;79.77
17855;BME280;9053;53.358;6.382;2023-04-19T16:21:20;102696.69;;;11.33;80.01
17855;BME280;9053;53.358;6.382;2023-04-19T16:23:54;102697.97;;;11.40;80.32
17855;BME280;9053;53.358;6.382;2023-04-19T16:26:27;102685.59;;;11.39;79.85
17855;BME280;9053;53.358;6.382;2023-04-19T16:28:56;102689.78;;;11.35;79.92
17855;BME280;9053;53.358;6.382;2023-04-19T16:31:30;102691.81;;;11.39;80.60
17855;BME280;9053;53.358;6.382;2023-04-19T16:34:04;102688.44;;;11.42;80.80
17855;BME280;9053;53.358;6.382;2023-04-19T16:36:36;102688.25;;;11.39;80.62
17855;BME280;9053;53.358;6.382;2023-04-19T16:39:12;102683.91;;;11.39;80.66
17855;BME280;9053;53.358;6.382;2023-04-19T16:41:43;102682.72;;;11.34;80.82
17855;BME280;9053;53.358;6.382;2023-04-19T16:44:17;102681.59;;;11.31;80.20
17855;BME280;9053;53.358;6.382;2023-04-19T16:47:09;102677.06;;;11.28;79.47
17855;BME280;9053;53.358;6.382;2023-04-19T16:49:42;102686.53;;;11.24;79.04
17855;BME280;9053;53.358;6.382;2023-04-19T16:52:13;102689.94;;;11.23;78.72
17855;BME280;9053;53.358;6.382;2023-04-19T16:54:43;102676.78;;;11.23;78.81
17855;BME280;9053;53.358;6.382;2023-04-19T16:57:13;102669.25;;;11.30;77.98
17855;BME280;9053;53.358;6.382;2023-04-19T16:59:43;102674.59;;;11.31;77.59
17855;BME280;9053;53.358;6.382;2023-04-19T17:02:17;102682.44;;;11.30;76.79
17855;BME280;9053;53.358;6.382;2023-04-19T17:04:50;102672.53;;;11.25;76.24
17855;BME280;9053;53.358;6.382;2023-04-19T17:07:26;102678.50;;;11.23;76.29
17855;BME280;9053;53.358;6.382;2023-04-19T17:09:56;102679.16;;;11.19;76.11
17855;BME280;9053;53.358;6.382;2023-04-19T17:12:26;102673.06;;;11.20;75.98
17855;BME280;9053;53.358;6.382;2023-04-19T17:15:02;102672.16;;;11.19;76.07
17855;BME280;9053;53.358;6.382;2023-04-19T17:17:39;102669.34;;;11.16;76.30
17855;BME280;9053;53.358;6.382;2023-04-19T17:20:13;102673.63;;;11.14;76.53
17855;BME280;9053;53.358;6.382;2023-04-19T17:22:46;102668.13;;;11.11;76.91
17855;BME280;9053;53.358;6.382;2023-04-19T17:25:21;102665.44;;;11.10;76.96
17855;BME280;9053;53.358;6.382;2023-04-19T17:27:55;102658.25;;;11.07;76.91
17855;BME280;9053;53.358;6.382;2023-04-19T17:30:36;102666.34;;;11.10;76.68
17855;BME280;9053;53.358;6.382;2023-04-19T17:33:07;102671.41;;;11.07;76.46
17855;BME280;9053;53.358;6.382;2023-04-19T17:35:41;102659.16;;;11.08;76.35
17855;BME280;9053;53.358;6.382;2023-04-19T17:38:12;102654.72;;;11.07;76.37
17855;BME280;9053;53.358;6.382;2023-04-19T17:40:42;102665.03;;;11.03;76.31
17855;BME280;9053;53.358;6.382;2023-04-19T17:43:11;102670.22;;;11.02;76.25
17855;BME280;9053;53.358;6.382;2023-04-19T17:45:46;102656.88;;;10.99;76.28
17855;BME280;9053;53.358;6.382;2023-04-19T17:48:21;102671.13;;;11.02;76.23
17855;BME280;9053;53.358;6.382;2023-04-19T17:50:56;102667.91;;;10.93;75.85
17855;BME280;9053;53.358;6.382;2023-04-19T17:53:26;102656.41;;;10.91;75.75
17855;BME280;9053;53.358;6.382;2023-04-19T17:55:58;102657.94;;;10.88;75.80
17855;BME280;9053;53.358;6.382;2023-04-19T17:58:30;102662.19;;;10.86;75.88
17855;BME280;9053;53.358;6.382;2023-04-19T18:01:02;102662.00;;;10.82;75.94
17855;BME280;9053;53.358;6.382;2023-04-19T18:03:32;102661.00;;;10.80;76.40
17855;BME280;9053;53.358;6.382;2023-04-19T18:06:07;102662.63;;;10.78;76.91
17855;BME280;9053;53.358;6.382;2023-04-19T18:08:37;102670.34;;;10.75;77.51
17855;BME280;9053;53.358;6.382;2023-04-19T18:11:08;102663.56;;;10.79;77.84
17855;BME280;9053;53.358;6.382;2023-04-19T18:13:40;102665.34;;;10.80;78.16
17855;BME280;9053;53.358;6.382;2023-04-19T18:16:13;102661.28;;;10.85;78.22
17855;BME280;9053;53.358;6.382;2023-04-19T18:18:46;102665.34;;;10.80;77.54
17855;BME280;9053;53.358;6.382;2023-04-19T18:21:19;102662.63;;;10.78;76.33
17855;BME280;9053;53.358;6.382;2023-04-19T18:23:56;102669.31;;;10.73;74.62
17855;BME280;9053;53.358;6.382;2023-04-19T18:26:35;102681.03;;;10.78;73.34
17855;BME280;9053;53.358;6.382;2023-04-19T18:29:05;102667.81;;;10.77;71.91
17855;BME280;9053;53.358;6.382;2023-04-19T18:31:36;102666.91;;;10.76;70.69
17855;BME280;9053;53.358;6.382;2023-04-19T18:34:15;102675.22;;;10.69;69.51
17855;BME280;9053;53.358;6.382;2023-04-19T18:36:48;102678.41;;;10.64;68.88
17855;BME280;9053;53.358;6.382;2023-04-19T18:39:18;102689.00;;;10.65;68.44
17855;BME280;9053;53.358;6.382;2023-04-19T18:41:48;102692.44;;;10.64;68.02
17855;BME280;9053;53.358;6.382;2023-04-19T18:44:17;102694.25;;;10.65;67.89
17855;BME280;9053;53.358;6.382;2023-04-19T18:47:08;102683.78;;;10.52;67.38
17855;BME280;9053;53.358;6.382;2023-04-19T18:49:38;102697.16;;;10.42;67.39
17855;BME280;9053;53.358;6.382;2023-04-19T18:52:27;102694.59;;;10.43;67.52
17855;BME280;9053;53.358;6.382;2023-04-19T18:54:57;102691.19;;;10.44;67.58
17855;BME280;9053;53.358;6.382;2023-04-19T18:57:27;102694.53;;;10.42;67.45
17855;BME280;9053;53.358;6.382;2023-04-19T19:00:01;102698.41;;;10.33;67.26
17855;BME280;9053;53.358;6.382;2023-04-19T19:02:32;102714.38;;;10.36;67.29
17855;BME280;9053;53.358;6.382;2023-04-19T19:05:05;102711.31;;;10.30;67.12
17855;BME280;9053;53.358;6.382;2023-04-19T19:07:38;102708.38;;;10.26;66.98
17855;BME280;9053;53.358;6.382;2023-04-19T19:10:09;102706.47;;;10.23;66.88
17855;BME280;9053;53.358;6.382;2023-04-19T19:12:47;102709.41;;;10.14;66.42
17855;BME280;9053;53.358;6.382;2023-04-19T19:15:17;102711.84;;;10.11;66.30
17855;BME280;9053;53.358;6.382;2023-04-19T19:17:47;102724.88;;;10.10;66.22
17855;BME280;9053;53.358;6.382;2023-04-19T19:20:17;102723.97;;;10.09;66.34
17855;BME280;9053;53.358;6.382;2023-04-19T19:22:50;102726.47;;;10.08;66.08
17855;BME280;9053;53.358;6.382;2023-04-19T19:25:20;102721.03;;;10.05;66.03
17855;BME280;9053;53.358;6.382;2023-04-19T19:27:50;102726.09;;;10.02;66.11
17855;BME280;9053;53.358;6.382;2023-04-19T19:30:41;102736.78;;;10.05;66.08
17855;BME280;9053;53.358;6.382;2023-04-19T19:33:16;102721.84;;;10.04;65.97
17855;BME280;9053;53.358;6.382;2023-04-19T19:35:47;102731.72;;;10.08;65.82
17855;BME280;9053;53.358;6.382;2023-04-19T19:38:19;102723.38;;;10.13;65.77
17855;BME280;9053;53.358;6.382;2023-04-19T19:40:49;102719.91;;;10.14;65.62
17855;BME280;9053;53.358;6.382;2023-04-19T19:43:39;102721.13;;;10.19;65.73
17855;BME280;9053;53.358;6.382;2023-04-19T19:46:09;102720.44;;;10.09;65.78
17855;BME280;9053;53.358;6.382;2023-04-19T19:48:39;102712.81;;;10.00;65.64
17855;BME280;9053;53.358;6.382;2023-04-19T19:51:09;102716.59;;;9.90;65.71
17855;BME280;9053;53.358;6.382;2023-04-19T19:54:02;102711.84;;;9.98;65.86
17855;BME280;9053;53.358;6.382;2023-04-19T19:56:32;102716.78;;;10.07;65.95
17855;BME280;9053;53.358;6.382;2023-04-19T19:59:03;102711.41;;;10.05;66.01
17855;BME280;9053;53.358;6.382;2023-04-19T20:01:33;102707.50;;;9.99;65.92
17855;BME280;9053;53.358;6.382;2023-04-19T20:04:03;102716.47;;;10.02;66.07
17855;BME280;9053;53.358;6.382;2023-04-19T20:06:33;102709.78;;;10.07;66.06
17855;BME280;9053;53.358;6.382;2023-04-19T20:09:25;102707.66;;;10.15;66.04
17855;BME280;9053;53.358;6.382;2023-04-19T20:11:55;102711.13;;;10.14;65.93
17855;BME280;9053;53.358;6.382;2023-04-19T20:14:26;102705.47;;;10.21;65.98
17855;BME280;9053;53.358;6.382;2023-04-19T20:16:56;102712.31;;;10.19;66.04
17855;BME280;9053;53.358;6.382;2023-04-19T20:19:28;102711.22;;;10.02;66.12
17855;BME280;9053;53.358;6.382;2023-04-19T20:22:01;102715.38;;;9.99;66.53
17855;BME280;9053;53.358;6.382;2023-04-19T20:24:33;102722.03;;;9.93;66.79
17855;BME280;9053;53.358;6.382;2023-04-19T20:27:08;102719.00;;;9.87;67.11
17855;BME280;9053;53.358;6.382;2023-04-19T20:29:38;102721.22;;;9.81;67.43
17855;BME280;9053;53.358;6.382;2023-04-19T20:32:08;102722.13;;;9.82;67.73
17855;BME280;9053;53.358;6.382;2023-04-19T20:34:38;102717.19;;;9.73;67.90
17855;BME280;9053;53.358;6.382;2023-04-19T20:37:08;102715.72;;;9.65;68.15
17855;BME280;9053;53.358;6.382;2023-04-19T20:39:43;102715.72;;;9.65;68.61
17855;BME280;9053;53.358;6.382;2023-04-19T20:42:19;102720.00;;;9.63;68.95
17855;BME280;9053;53.358;6.382;2023-04-19T20:44:52;102710.41;;;9.63;69.26
17855;BME280;9053;53.358;6.382;2023-04-19T20:47:22;102709.97;;;9.57;69.31
17855;BME280;9053;53.358;6.382;2023-04-19T20:49:52;102712.91;;;9.62;69.46
17855;BME280;9053;53.358;6.382;2023-04-19T20:52:24;102701.19;;;9.57;69.43
17855;BME280;9053;53.358;6.382;2023-04-19T20:54:57;102705.34;;;9.53;69.61
17855;BME280;9053;53.358;6.382;2023-04-19T20:57:26;102704.50;;;9.54;69.76
17855;BME280;9053;53.358;6.382;2023-04-19T20:59:56;102708.16;;;9.56;69.93
17855;BME280;9053;53.358;6.382;2023-04-19T21:02:27;102713.69;;;9.47;70.06
17855;BME280;9053;53.358;6.382;2023-04-19T21:04:57;102706.03;;;9.50;70.30
17855;BME280;9053;53.358;6.382;2023-04-19T21:07:27;102699.97;;;9.51;70.55
17855;BME280;9053;53.358;6.382;2023-04-19T21:10:00;102708.75;;;9.52;70.77
17855;BME280;9053;53.358;6.382;2023-04-19T21:12:30;102700.88;;;9.52;70.92
17855;BME280;9053;53.358;6.382;2023-04-19T21:15:00;102702.31;;;9.60;71.29
17855;BME280;9053;53.358;6.382;2023-04-19T21:17:41;102696.34;;;9.63;71.52
17855;BME280;9053;53.358;6.382;2023-04-19T21:20:18;102700.59;;;9.61;71.74
17855;BME280;9053;53.358;6.382;2023-04-19T21:22:48;102697.00;;;9.47;71.99
17855;BME280;9053;53.358;6.382;2023-04-19T21:25:20;102690.03;;;9.47;72.09
17855;BME280;9053;53.358;6.382;2023-04-19T21:28:02;102692.84;;;9.37;72.22
17855;BME280;9053;53.358;6.382;2023-04-19T21:30:38;102695.91;;;9.43;72.50
17855;BME280;9053;53.358;6.382;2023-04-19T21:33:10;102699.56;;;9.45;72.64
17855;BME280;9053;53.358;6.382;2023-04-19T21:35:40;102688.34;;;9.48;72.88
17855;BME280;9053;53.358;6.382;2023-04-19T21:38:10;102698.53;;;9.43;73.03
17855;BME280;9053;53.358;6.382;2023-04-19T21:40:43;102695.19;;;9.32;73.36
17855;BME280;9053;53.358;6.382;2023-04-19T21:43:16;102688.03;;;9.43;73.66
17855;BME280;9053;53.358;6.382;2023-04-19T21:45:46;102684.59;;;9.44;73.86
17855;BME280;9053;53.358;6.382;2023-04-19T21:48:16;102685.59;;;9.46;73.97
17855;BME280;9053;53.358;6.382;2023-04-19T21:50:46;102680.47;;;9.48;74.24
17855;BME280;9053;53.358;6.382;2023-04-19T21:53:42;102678.94;;;9.51;74.47
17855;BME280;9053;53.358;6.382;2023-04-19T22:00:30;102672.91;;;9.52;75.49
17855;BME280;9053;53.358;6.382;2023-04-19T22:03:16;102681.25;;;9.47;75.91
17855;BME280;9053;53.358;6.382;2023-04-19T22:06:08;102677.72;;;9.33;76.49
17855;BME280;9053;53.358;6.382;2023-04-19T22:09:04;102673.53;;;9.23;77.30
17855;BME280;9053;53.358;6.382;2023-04-19T22:12:00;102675.16;;;9.21;77.99
17855;BME280;9053;53.358;6.382;2023-04-19T22:14:44;102674.13;;;9.19;78.72
17855;BME280;9053;53.358;6.382;2023-04-19T22:17:17;102671.81;;;9.24;79.28
17855;BME280;9053;53.358;6.382;2023-04-19T22:19:47;102658.38;;;9.19;80.05
17855;BME280;9053;53.358;6.382;2023-04-19T22:22:17;102666.38;;;9.21;80.56
17855;BME280;9053;53.358;6.382;2023-04-19T22:24:47;102657.28;;;9.29;81.31
17855;BME280;9053;53.358;6.382;2023-04-19T22:27:23;102657.28;;;9.29;81.70
17855;BME280;9053;53.358;6.382;2023-04-19T22:29:53;102652.25;;;9.32;82.12
17855;BME280;9053;53.358;6.382;2023-04-19T22:32:37;102650.63;;;9.34;82.55
17855;BME280;9053;53.358;6.382;2023-04-19T22:47:19;102624.25;;;9.19;84.69
17855;BME280;9053;53.358;6.382;2023-04-19T22:49:53;102623.25;;;9.17;85.04
17855;BME280;9053;53.358;6.382;2023-04-19T22:52:35;102620.13;;;9.23;85.34
17855;BME280;9053;53.358;6.382;2023-04-19T22:55:05;102610.66;;;9.25;85.42
17855;BME280;9053;53.358;6.382;2023-04-19T23:00:42;102613.66;;;9.31;85.36
17855;BME280;9053;53.358;6.382;2023-04-19T23:03:11;102610.13;;;9.30;85.24
17855;BME280;9053;53.358;6.382;2023-04-19T23:05:44;102606.91;;;9.35;85.17
17855;BME280;9053;53.358;6.382;2023-04-19T23:08:14;102600.53;;;9.31;84.99
17855;BME280;9053;53.358;6.382;2023-04-19T23:10:44;102598.03;;;9.32;84.85
17855;BME280;9053;53.358;6.382;2023-04-19T23:13:16;102599.00;;;9.35;84.67
17855;BME280;9053;53.358;6.382;2023-04-19T23:15:46;102592.06;;;9.35;84.50
17855;BME280;9053;53.358;6.382;2023-04-19T23:18:16;102588.94;;;9.27;84.21
17855;BME280;9053;53.358;6.382;2023-04-19T23:20:54;102587.41;;;9.31;83.97
17855;BME280;9053;53.358;6.382;2023-04-19T23:23:25;102588.81;;;9.39;83.89
17855;BME280;9053;53.358;6.382;2023-04-19T23:25:59;102587.22;;;9.41;83.59
17855;BME280;9053;53.358;6.382;2023-04-19T23:28:31;102574.69;;;9.37;83.30
17855;BME280;9053;53.358;6.382;2023-04-19T23:31:01;102576.59;;;9.40;83.18
17855;BME280;9053;53.358;6.382;2023-04-19T23:33:34;102574.69;;;9.37;83.06
17855;BME280;9053;53.358;6.382;2023-04-19T23:36:09;102564.47;;;9.42;82.96
17855;BME280;9053;53.358;6.382;2023-04-19T23:38:41;102557.72;;;9.45;82.90
17855;BME280;9053;53.358;6.382;2023-04-19T23:41:11;102563.56;;;9.41;82.76
17855;BME280;9053;53.358;6.382;2023-04-19T23:43:41;102553.66;;;9.37;82.71
17855;BME280;9053;53.358;6.382;2023-04-19T23:46:17;102559.63;;;9.35;82.64
17855;BME280;9053;53.358;6.382;2023-04-19T23:48:47;102548.41;;;9.24;82.49
17855;BME280;9053;53.358;6.382;2023-04-19T23:51:19;102553.78;;;9.25;82.59
17855;BME280;9053;53.358;6.382;2023-04-19T23:53:53;102541.88;;;9.17;82.64
17855;BME280;9053;53.358;6.382;2023-04-19T23:56:23;102539.25;;;9.17;82.74
17855;BME280;9053;53.358;6.382;2023-04-19T23:58:55;102546.41;;;9.20;82.74
